Montara, CA (94037)

9:39 PM PDT on April 27, 2017 (GMT -0700)
roof of house | | Change Station

Elev 203 ft 37.54 °N, 122.51 °W | Updated 2 seconds ago

Haze
Haze
53.6 °F
Feels Like 53.6 °F
N
15.4
Wind Variable Wind from NNW
Gusts 25.0 mph

Today
High -- | Low -- °F
--% Chance of Precip.
Yesterday
High -- | Low -- °F
Precip. -- in
Pressure 30.04 in
Visibility 6.0 miles
Clouds Clear
Dew Point 47 °F
Humidity 81%
Rainfall 0.02 in
Snow Depth Not available.
6:19 AM 7:56 PM
Waxing Crescent, 4% visible
METAR KHAF 280435Z AUTO 33026G32KT 6SM HZ CLR 12/08 A3004 RMK AO2
Pressure 30.04 in
Visibility 6.0 miles
Clouds Clear
Dew Point 47 °F
Humidity 81%
Rainfall 0.02 in
Snow Depth Not available.
6:19 AM 7:56 PM
Waxing Crescent, 4% visible
METAR KHAF 280435Z AUTO 33026G32KT 6SM HZ CLR 12/08 A3004 RMK AO2

Get Severe Weather Alerts

Thanks for signing up!

Be on the lookout for a verification email in your inbox.

You'll start receiving the daily forecast at 8 AM.

×

10-Day Weather Forecast

Almanac

Astronomy

Apr. 27, 2017 Rise Set
Actual Time
Civil Twilight
Nautical Twilight
Astronomical Twilight
Moon
Length of Visible Light
Length of Day
Tomorrow will be .
, % of the Moon is Illuminated

Today's Extremes

State Highs State Lows

Community

WunderPhotos

WunderBlog® & News

Nearby

Air Quality

  Air Quality AQ Index Pollutant
Not available.

Snow Depth

Station Depth Elevation

Earthquake Activity

City Distance Mag. Time & Date
Minimum magnitude displayed is 2.5.

Coastal Water Temperatures

Place Temperature

Stations

Nearby Weather Stations

Station Location Temp. Windchill Dew Point Humidity Wind Precip. Elev Updated Type
                   

Watches & Warnings

There are currently no watches in effect.